createdAt,value
2023-09-16T00:00:20.457Z,95104.66
2023-09-16T00:02:49.397Z,95097.69
2023-09-16T00:05:17.004Z,95100.13
2023-09-16T00:07:44.561Z,95100.91
2023-09-16T00:10:11.635Z,95101.16
2023-09-16T00:12:38.737Z,95100.88
2023-09-16T00:15:06.769Z,95094.94
2023-09-16T00:17:36.737Z,95098.97
2023-09-16T00:20:12.773Z,95101.31
2023-09-16T00:22:39.912Z,95093.25
2023-09-16T00:25:09.209Z,95094.31
2023-09-16T00:27:37.008Z,95095.13
2023-09-16T00:30:04.576Z,95092.44
2023-09-16T00:32:33.042Z,95096.44
2023-09-16T00:35:00.376Z,95092.38
2023-09-16T00:37:27.391Z,95091.06
2023-09-16T00:39:55.373Z,95091.84
2023-09-16T00:42:22.884Z,95090.47
2023-09-16T00:44:49.976Z,95092.09
2023-09-16T00:47:16.940Z,95095.28
2023-09-16T00:49:44.351Z,95087.00
2023-09-16T00:52:11.770Z,95088.31
2023-09-16T00:54:39.374Z,95084.03
2023-09-16T00:57:13.101Z,95088.84
2023-09-16T00:59:40.626Z,95087.75
2023-09-16T01:02:12.878Z,95083.69
2023-09-16T01:04:41.523Z,95086.13
2023-09-16T01:07:09.212Z,95082.63
2023-09-16T01:09:37.512Z,95083.66
2023-09-16T01:12:06.106Z,95079.38
2023-09-16T01:14:34.612Z,95074.53
2023-09-16T01:17:09.881Z,95074.53
2023-09-16T01:19:48.856Z,95067.28
2023-09-16T01:22:16.177Z,95073.19
2023-09-16T01:24:52.329Z,95079.63
2023-09-16T01:27:21.044Z,95079.34
2023-09-16T01:29:49.872Z,95076.94
2023-09-16T01:32:21.330Z,95071.31
2023-09-16T01:34:54.100Z,95065.16
2023-09-16T01:37:25.083Z,95060.81
2023-09-16T01:39:58.530Z,95070.50
2023-09-16T01:42:30.526Z,95062.97
2023-09-16T01:44:57.702Z,95074.53
2023-09-16T01:47:24.676Z,95072.13
2023-09-16T01:49:51.801Z,95073.19
2023-09-16T01:52:18.803Z,95074.31
2023-09-16T01:54:45.778Z,95071.63
2023-09-16T01:57:13.128Z,95071.63
2023-09-16T01:59:40.100Z,95061.94
2023-09-16T02:02:07.409Z,95063.31
2023-09-16T02:04:34.395Z,95066.56
2023-09-16T02:07:02.083Z,95070.06
2023-09-16T02:09:29.114Z,95073.81
2023-09-16T02:11:56.437Z,95070.84
2023-09-16T02:14:23.817Z,95075.69
2023-09-16T02:16:50.850Z,95069.25
2023-09-16T02:19:17.985Z,95074.91
2023-09-16T02:21:45.213Z,95073.00
2023-09-16T02:24:12.174Z,95069.28
2023-09-16T02:26:39.296Z,95070.91
2023-09-16T02:29:06.327Z,95066.59
2023-09-16T02:31:33.539Z,95071.72
2023-09-16T02:34:00.933Z,95068.22
2023-09-16T02:36:28.460Z,95065.88
2023-09-16T02:38:55.550Z,95064.28
2023-09-16T02:41:22.782Z,95066.97
2023-09-16T02:43:50.899Z,95063.47
2023-09-16T02:46:18.699Z,95062.66
2023-09-16T02:48:45.823Z,95070.47
2023-09-16T02:51:12.966Z,95069.88
2023-09-16T02:53:40.384Z,95070.97
2023-09-16T02:56:10.707Z,95066.41
2023-09-16T02:58:37.694Z,95066.66
2023-09-16T03:01:14.495Z,95064.28
2023-09-16T03:03:45.061Z,95061.06
2023-09-16T03:06:13.537Z,95064.28
2023-09-16T03:08:40.696Z,95066.16
2023-09-16T03:11:07.833Z,95057.81
2023-09-16T03:13:38.087Z,95059.72
2023-09-16T03:16:16.589Z,95058.63
2023-09-16T03:18:51.610Z,95056.75
2023-09-16T03:21:20.905Z,95061.03
2023-09-16T03:23:49.477Z,95063.72
2023-09-16T03:26:17.538Z,95053.00
2023-09-16T03:28:48.328Z,95054.06
2023-09-16T03:31:17.809Z,95058.06
2023-09-16T03:33:44.929Z,95057.53
2023-09-16T03:36:12.058Z,95056.69
2023-09-16T03:38:51.831Z,95052.41
2023-09-16T03:41:19.276Z,95040.88
2023-09-16T03:43:56.786Z,95045.97
2023-09-16T03:46:25.393Z,95039.00
2023-09-16T03:48:53.993Z,95039.53
2023-09-16T03:51:23.068Z,95039.53
2023-09-16T03:53:51.873Z,95040.31
2023-09-16T03:56:18.883Z,95036.03
2023-09-16T03:58:46.203Z,95030.38
2023-09-16T04:01:13.381Z,95028.78
2023-09-16T04:03:40.638Z,95032.25
2023-09-16T04:06:07.949Z,95035.47
2023-09-16T04:08:42.044Z,95026.09
2023-09-16T04:11:11.175Z,95034.94
2023-09-16T04:13:38.898Z,95028.78
2023-09-16T04:16:06.404Z,95027.19
2023-09-16T04:18:35.177Z,95030.38
2023-09-16T04:21:04.313Z,95030.66
2023-09-16T04:23:31.893Z,95035.53
2023-09-16T04:26:02.363Z,95043.00
2023-09-16T04:28:30.615Z,95041.38
2023-09-16T04:31:00.091Z,95046.25
2023-09-16T04:33:31.593Z,95047.03
2023-09-16T04:35:58.744Z,95038.19
2023-09-16T04:38:26.968Z,95046.25
2023-09-16T04:40:57.124Z,95043.03
2023-09-16T04:43:26.583Z,95050.03
2023-09-16T04:45:55.465Z,95053.50
2023-09-16T04:48:43.191Z,95048.16
2023-09-16T04:51:10.954Z,95054.13
2023-09-16T04:53:38.032Z,95051.97
2023-09-16T04:56:11.547Z,95059.25
2023-09-16T04:58:50.861Z,95061.38
2023-09-16T05:01:19.286Z,95050.41
2023-09-16T05:03:46.473Z,95061.69
2023-09-16T05:06:14.743Z,95059.00
2023-09-16T05:08:41.709Z,95059.59
2023-09-16T05:11:08.759Z,95060.13
2023-09-16T05:13:46.654Z,95055.88
2023-09-16T05:16:14.107Z,95057.19
2023-09-16T05:18:41.240Z,95056.41
2023-09-16T05:21:08.763Z,95060.69
2023-09-16T05:23:35.920Z,95058.31
2023-09-16T05:26:06.255Z,95058.56
2023-09-16T05:28:36.617Z,95058.31
2023-09-16T05:31:05.445Z,95062.06
2023-09-16T05:33:36.787Z,95067.94
2023-09-16T05:36:03.907Z,95063.38
2023-09-16T05:38:31.164Z,95064.16
2023-09-16T05:40:58.288Z,95065.78
2023-09-16T05:43:25.808Z,95060.41
2023-09-16T05:45:53.606Z,95063.91
2023-09-16T05:48:21.737Z,95061.22
2023-09-16T05:50:59.703Z,95056.38
2023-09-16T05:53:31.900Z,95067.38
2023-09-16T05:56:05.872Z,95061.44
2023-09-16T05:58:34.697Z,95066.56
2023-09-16T06:01:02.476Z,95067.06
2023-09-16T06:03:30.267Z,95058.75
2023-09-16T06:06:00.334Z,95057.94
2023-09-16T06:08:27.434Z,95062.75
2023-09-16T06:10:57.413Z,95061.94
2023-09-16T06:13:26.184Z,95062.19
2023-09-16T06:15:54.855Z,95056.81
2023-09-16T06:18:24.668Z,95059.25
2023-09-16T06:20:51.644Z,95059.25
2023-09-16T06:23:18.932Z,95058.41
2023-09-16T06:25:48.418Z,95050.06
2023-09-16T06:28:15.762Z,95057.06
2023-09-16T06:30:42.768Z,95042.03
2023-09-16T06:33:11.660Z,95050.59
2023-09-16T06:35:38.727Z,95038.78
2023-09-16T06:38:05.865Z,95039.31
2023-09-16T06:40:33.220Z,95038.25
2023-09-16T06:43:00.210Z,95044.13
2023-09-16T06:45:29.680Z,95045.72
2023-09-16T06:47:58.058Z,95049.22
2023-09-16T06:50:25.126Z,95048.13
2023-09-16T06:52:52.219Z,95050.81
2023-09-16T06:55:19.264Z,95054.81
2023-09-16T07:00:31.735Z,95051.03
2023-09-16T07:02:59.938Z,95052.66
2023-09-16T07:05:32.156Z,95047.00
2023-09-16T07:08:02.070Z,95044.84
2023-09-16T07:10:29.282Z,95046.72
2023-09-16T07:12:56.524Z,95044.56
2023-09-16T07:15:24.369Z,95044.56
2023-09-16T07:17:51.522Z,95052.34
2023-09-16T07:20:18.981Z,95056.63
2023-09-16T07:22:46.158Z,95058.75
2023-09-16T07:25:13.571Z,95056.84
2023-09-16T07:27:40.718Z,95059.53
2023-09-16T07:30:09.124Z,95062.44
2023-09-16T07:32:37.582Z,95071.31
2023-09-16T07:35:05.129Z,95068.34
2023-09-16T07:37:32.266Z,95076.13
2023-09-16T07:39:59.332Z,95075.88
2023-09-16T07:42:26.469Z,95078.28
2023-09-16T07:44:53.517Z,95077.19
2023-09-16T07:47:20.659Z,95073.69
2023-09-16T07:49:47.920Z,95068.06
2023-09-16T07:52:15.108Z,95062.41
2023-09-16T07:54:43.663Z,95070.16
2023-09-16T07:57:10.884Z,95061.56
2023-09-16T07:59:38.313Z,95054.31
2023-09-16T08:02:05.596Z,95051.63
2023-09-16T08:04:32.928Z,95047.84
2023-09-16T08:07:00.126Z,95062.88
2023-09-16T08:09:27.281Z,95054.53
2023-09-16T08:11:54.512Z,95048.88
2023-09-16T08:14:21.594Z,95046.19
2023-09-16T08:16:48.667Z,95052.88
2023-09-16T08:19:17.975Z,95052.31
2023-09-16T08:21:45.128Z,95057.69
2023-09-16T08:24:12.346Z,95058.47
2023-09-16T08:26:39.516Z,95057.41
2023-09-16T08:29:06.541Z,95051.75
2023-09-16T08:31:33.880Z,95059.53
2023-09-16T08:34:04.855Z,95052.25
2023-09-16T08:36:31.926Z,95053.88
2023-09-16T08:38:59.087Z,95057.06
2023-09-16T08:42:06.783Z,95062.94
2023-09-16T08:44:38.543Z,95063.25
2023-09-16T08:47:11.679Z,95057.56
2023-09-16T08:49:47.366Z,95056.22
2023-09-16T08:52:18.014Z,95066.41
2023-09-16T08:54:48.930Z,95060.22
2023-09-16T08:57:17.886Z,95062.34
2023-09-16T08:59:45.930Z,95061.25
2023-09-16T09:02:13.129Z,95065.25
2023-09-16T09:04:44.206Z,95064.16
2023-09-16T09:07:12.555Z,95062.00
2023-09-16T09:09:40.216Z,95058.81
2023-09-16T09:12:09.257Z,95063.31
2023-09-16T09:14:37.334Z,95073.78
2023-09-16T09:17:05.230Z,95061.66
2023-09-16T09:19:32.898Z,95064.03
2023-09-16T09:22:01.364Z,95065.16
2023-09-16T09:24:29.450Z,95063.78
2023-09-16T09:26:56.564Z,95068.56
2023-09-16T09:29:23.893Z,95059.44
2023-09-16T09:31:51.428Z,95062.63
2023-09-16T09:34:19.356Z,95061.56
2023-09-16T09:36:48.400Z,95065.56
2023-09-16T09:39:15.608Z,95065.25
2023-09-16T09:41:48.065Z,95064.22
2023-09-16T09:44:15.766Z,95055.06
2023-09-16T09:46:43.408Z,95061.75
2023-09-16T09:49:12.740Z,95052.59
2023-09-16T09:51:40.593Z,95065.44
2023-09-16T09:54:11.341Z,95066.28
2023-09-16T09:56:38.656Z,95062.75
2023-09-16T09:59:05.850Z,95064.66
2023-09-16T10:01:34.238Z,95071.06
2023-09-16T10:04:04.803Z,95067.28
2023-09-16T10:06:31.963Z,95064.06
2023-09-16T10:08:59.051Z,95079.34
2023-09-16T10:11:29.675Z,95072.38
2023-09-16T10:13:57.241Z,95063.75
2023-09-16T10:16:24.831Z,95066.13
2023-09-16T10:18:53.528Z,95059.16
2023-09-16T10:21:20.933Z,95048.91
2023-09-16T10:23:48.791Z,95049.69
2023-09-16T10:26:17.440Z,95051.31
2023-09-16T10:28:48.568Z,95043.75
2023-09-16T10:31:17.785Z,95041.59
2023-09-16T10:33:46.163Z,95044.78
2023-09-16T10:36:15.730Z,95044.78
2023-09-16T10:38:44.316Z,95049.59
2023-09-16T10:41:12.233Z,95049.59
2023-09-16T10:43:40.346Z,95050.09
2023-09-16T10:46:08.595Z,95047.13
2023-09-16T10:48:35.939Z,95042.25
2023-09-16T10:51:13.132Z,95048.13
2023-09-16T10:53:42.144Z,95042.47
2023-09-16T10:56:27.328Z,95042.47
2023-09-16T10:59:20.178Z,95038.69
2023-09-16T11:01:59.316Z,95043.19
2023-09-16T11:04:28.882Z,95038.63
2023-09-16T11:06:58.864Z,95038.03
2023-09-16T11:09:26.226Z,95028.59
2023-09-16T11:11:54.445Z,95041.75
2023-09-16T11:14:22.977Z,95034.47
2023-09-16T11:16:55.322Z,95030.41
2023-09-16T11:19:29.876Z,95031.72
2023-09-16T11:21:59.457Z,95026.84
2023-09-16T11:24:28.688Z,95026.25
2023-09-16T11:27:01.194Z,95033.47
2023-09-16T11:29:29.588Z,95028.09
2023-09-16T11:31:57.296Z,95025.13
2023-09-16T11:34:28.076Z,95022.16
2023-09-16T11:36:59.517Z,95018.84
2023-09-16T11:39:44.802Z,95022.06
2023-09-16T11:42:13.825Z,95017.19
2023-09-16T11:44:41.835Z,95006.91
2023-09-16T11:47:10.884Z,95009.81
2023-09-16T11:49:38.155Z,95009.81
2023-09-16T11:52:05.850Z,95003.88
2023-09-16T11:54:33.094Z,95020.22
2023-09-16T11:57:00.591Z,95014.84
2023-09-16T11:59:28.617Z,95012.94
2023-09-16T12:01:56.262Z,95011.56
2023-09-16T12:04:24.078Z,95023.63
2023-09-16T12:06:51.610Z,95017.66
2023-09-16T12:09:20.579Z,95010.88
2023-09-16T12:11:50.714Z,95004.41
2023-09-16T12:14:18.214Z,94999.81
2023-09-16T12:16:45.403Z,94994.94
2023-09-16T12:19:12.735Z,94993.25
2023-09-16T12:21:49.735Z,94995.66
2023-09-16T12:24:26.031Z,94990.28
2023-09-16T12:26:53.219Z,94988.88
2023-09-16T12:29:20.829Z,94984.81
2023-09-16T12:31:48.973Z,94989.31
2023-09-16T12:34:18.206Z,94990.09
2023-09-16T12:36:50.657Z,94976.63
2023-09-16T12:39:18.311Z,94990.81
2023-09-16T12:41:50.332Z,94980.81
2023-09-16T12:44:25.834Z,94982.13
2023-09-16T12:46:53.393Z,94973.75
2023-09-16T12:49:21.331Z,94983.97
2023-09-16T12:51:48.657Z,94980.38
2023-09-16T12:54:15.746Z,94976.28
2023-09-16T12:56:53.272Z,94978.41
2023-09-16T12:59:20.995Z,94982.09
2023-09-16T13:01:48.836Z,94979.59
2023-09-16T13:04:16.010Z,94979.50
2023-09-16T13:06:44.663Z,94975.13
2023-09-16T13:09:12.907Z,94978.78
2023-09-16T13:11:40.388Z,94970.59
2023-09-16T13:14:07.564Z,94956.53
2023-09-16T13:16:39.985Z,94954.53
2023-09-16T13:19:16.619Z,94964.09
2023-09-16T13:21:43.901Z,94957.81
2023-09-16T13:24:10.894Z,94958.50
2023-09-16T13:26:56.619Z,94951.75
2023-09-16T13:29:24.014Z,94955.13
2023-09-16T13:32:17.624Z,94941.84
2023-09-16T13:34:45.839Z,94951.41
2023-09-16T13:37:13.358Z,94947.00
2023-09-16T13:39:45.664Z,94941.19
2023-09-16T13:42:14.339Z,94938.38
2023-09-16T13:44:46.812Z,94938.25
2023-09-16T13:47:15.072Z,94942.44
2023-09-16T13:49:42.590Z,94947.69
2023-09-16T13:52:09.682Z,94938.69
2023-09-16T13:54:36.931Z,94943.19
2023-09-16T13:57:05.137Z,94936.91
2023-09-16T13:59:32.421Z,94949.47
2023-09-16T14:01:59.505Z,94941.25
2023-09-16T14:04:26.762Z,94935.72
2023-09-16T14:06:53.916Z,94936.69
2023-09-16T14:09:21.083Z,94935.75
2023-09-16T14:11:48.097Z,94931.34
2023-09-16T14:14:15.282Z,94924.22
2023-09-16T14:16:42.455Z,94923.31
2023-09-16T14:19:09.599Z,94922.38
2023-09-16T14:21:36.695Z,94928.44
2023-09-16T14:24:03.831Z,94925.13
2023-09-16T14:26:31.294Z,94923.38
2023-09-16T14:28:58.459Z,94930.56
2023-09-16T14:31:25.785Z,94922.34
2023-09-16T14:33:53.188Z,94922.19
2023-09-16T14:36:20.343Z,94932.06
2023-09-16T14:38:49.705Z,94926.06
2023-09-16T14:41:17.072Z,94918.13
2023-09-16T14:43:44.128Z,94912.91
2023-09-16T14:46:11.372Z,94926.56
2023-09-16T14:48:39.592Z,94922.63
2023-09-16T14:51:06.771Z,94921.19
2023-09-16T14:53:33.832Z,94924.06
2023-09-16T14:56:01.107Z,94919.94
2023-09-16T14:58:28.286Z,94923.31
2023-09-16T15:00:56.709Z,94910.25
2023-09-16T15:03:23.854Z,94918.53
2023-09-16T15:05:52.257Z,94917.09
2023-09-16T15:08:19.487Z,94916.81
2023-09-16T15:10:47.080Z,94913.78
2023-09-16T15:13:14.447Z,94919.06
2023-09-16T15:15:41.640Z,94905.38
2023-09-16T15:18:08.787Z,94907.13
2023-09-16T15:20:35.955Z,94901.41
2023-09-16T15:23:03.153Z,94901.06
2023-09-16T15:25:30.321Z,94904.75
2023-09-16T15:27:57.415Z,94904.44
2023-09-16T15:30:25.759Z,94908.41
2023-09-16T15:32:54.144Z,94902.69
2023-09-16T15:35:24.369Z,94916.38
2023-09-16T15:37:51.626Z,94906.69
2023-09-16T15:40:18.760Z,94905.25
2023-09-16T15:42:46.067Z,94901.09
2023-09-16T15:45:17.371Z,94907.31
2023-09-16T15:47:44.750Z,94899.69
2023-09-16T15:50:13.960Z,94893.16
2023-09-16T15:52:42.403Z,94899.34
2023-09-16T15:55:09.727Z,94897.91
2023-09-16T15:57:36.894Z,94906.03
2023-09-16T16:00:04.505Z,94909.56
2023-09-16T16:02:31.684Z,94908.75
2023-09-16T16:04:58.863Z,94904.44
2023-09-16T16:07:26.203Z,94899.03
2023-09-16T16:09:53.839Z,94900.94
2023-09-16T16:12:20.989Z,94907.97
2023-09-16T16:14:48.007Z,94903.50
2023-09-16T16:17:23.717Z,94909.69
2023-09-16T16:19:51.958Z,94907.31
2023-09-16T16:22:19.163Z,94905.25
2023-09-16T16:24:46.310Z,94902.84
2023-09-16T16:27:13.426Z,94907.78
2023-09-16T16:29:41.497Z,94904.59
2023-09-16T16:32:08.720Z,94898.69
2023-09-16T16:34:35.781Z,94908.72
2023-09-16T16:37:02.917Z,94907.47
2023-09-16T16:39:30.058Z,94906.19
2023-09-16T16:41:57.130Z,94913.03
2023-09-16T16:44:24.287Z,94913.03
2023-09-16T16:46:55.295Z,94912.53
2023-09-16T16:49:25.974Z,94912.06
2023-09-16T16:51:53.169Z,94903.75
2023-09-16T16:54:20.249Z,94904.84
2023-09-16T16:56:47.386Z,94904.38
2023-09-16T16:59:14.446Z,94903.56
2023-09-16T17:01:41.637Z,94899.09
2023-09-16T17:04:08.758Z,94901.03
2023-09-16T17:06:36.575Z,94905.94
2023-09-16T17:09:04.363Z,94910.06
2023-09-16T17:11:31.475Z,94908.47
2023-09-16T17:14:02.054Z,94910.22
2023-09-16T17:16:32.184Z,94909.75
2023-09-16T17:19:02.554Z,94901.16
2023-09-16T17:21:29.658Z,94909.88
2023-09-16T17:23:56.943Z,94910.53
2023-09-16T17:26:24.746Z,94914.34
2023-09-16T17:28:53.396Z,94918.75
2023-09-16T17:31:21.686Z,94910.19
2023-09-16T17:33:49.299Z,94917.47
2023-09-16T17:36:16.906Z,94918.59
2023-09-16T17:38:44.422Z,94922.72
2023-09-16T17:41:13.655Z,94920.66
2023-09-16T17:43:40.841Z,94923.34
2023-09-16T17:46:08.159Z,94921.25
2023-09-16T17:48:36.012Z,94921.91
2023-09-16T17:51:03.966Z,94928.41
2023-09-16T17:53:31.097Z,94937.13
2023-09-16T17:55:59.178Z,94934.75
2023-09-16T17:58:26.224Z,94938.06
2023-09-16T18:00:53.616Z,94934.03
2023-09-16T18:03:21.011Z,94929.28
2023-09-16T18:05:49.740Z,94938.47
2023-09-16T18:08:18.954Z,94948.78
2023-09-16T18:10:46.683Z,94948.63
2023-09-16T18:13:14.129Z,94958.13
2023-09-16T18:15:41.721Z,94961.16
2023-09-16T18:18:09.934Z,94960.66
2023-09-16T18:20:37.272Z,94967.47
2023-09-16T18:23:05.188Z,94966.97
2023-09-16T18:25:32.709Z,94966.81
2023-09-16T18:28:00.117Z,94971.72
2023-09-16T18:30:27.240Z,94981.25
2023-09-16T18:32:54.462Z,94971.06
2023-09-16T18:35:21.872Z,94973.56
2023-09-16T18:37:48.916Z,94971.19
2023-09-16T18:40:16.190Z,94975.63
2023-09-16T18:42:43.269Z,94965.41
2023-09-16T18:45:11.576Z,94976.03
2023-09-16T18:47:39.218Z,94980.91
2023-09-16T18:50:07.581Z,94981.56
2023-09-16T18:52:35.904Z,94977.25
2023-09-16T18:55:03.897Z,94974.06
2023-09-16T18:57:30.992Z,94974.38
2023-09-16T18:59:58.899Z,94975.47
2023-09-16T19:02:27.189Z,94980.06
2023-09-16T19:04:54.625Z,94977.94
2023-09-16T19:07:21.814Z,94984.94
2023-09-16T19:09:49.133Z,94979.34
2023-09-16T19:12:16.137Z,94984.75
2023-09-16T19:14:44.151Z,94991.25
2023-09-16T19:17:11.168Z,94986.16
2023-09-16T19:19:38.341Z,94982.97
2023-09-16T19:22:06.450Z,94986.47
2023-09-16T19:24:38.137Z,94988.69
2023-09-16T19:27:09.909Z,94982.00
2023-09-16T19:29:37.062Z,94984.19
2023-09-16T19:32:04.783Z,94986.09
2023-09-16T19:34:32.100Z,94990.22
2023-09-16T19:37:00.236Z,94990.22
2023-09-16T19:39:28.474Z,94989.19
2023-09-16T19:41:56.425Z,94982.00
2023-09-16T19:44:23.839Z,94982.63
2023-09-16T19:46:57.410Z,94986.75
2023-09-16T19:49:25.324Z,94989.25
2023-09-16T19:51:52.430Z,94979.38
2023-09-16T19:54:19.456Z,94983.16
2023-09-16T19:57:02.481Z,94977.88
2023-09-16T19:59:30.963Z,94978.78
2023-09-16T20:01:58.184Z,94987.50
2023-09-16T20:04:25.640Z,94989.19
2023-09-16T20:06:52.766Z,94989.25
2023-09-16T20:09:19.795Z,94985.84
2023-09-16T20:11:48.350Z,94984.38
2023-09-16T20:14:15.836Z,94988.28
2023-09-16T20:16:43.004Z,94993.47
2023-09-16T20:19:10.330Z,94992.47
2023-09-16T20:21:37.413Z,94986.06
2023-09-16T20:24:04.796Z,94982.69
2023-09-16T20:26:32.019Z,94992.44
2023-09-16T20:28:59.377Z,94984.47
2023-09-16T20:31:26.551Z,94990.47
2023-09-16T20:34:08.406Z,94988.66
2023-09-16T20:36:37.654Z,94976.38
2023-09-16T20:39:08.009Z,94982.94
2023-09-16T20:41:35.303Z,94980.63
2023-09-16T20:44:04.329Z,94985.53
2023-09-16T20:46:32.189Z,94976.72
2023-09-16T20:48:59.325Z,94984.28
2023-09-16T20:51:26.517Z,94975.72
2023-09-16T20:53:53.587Z,94978.41
2023-09-16T20:56:20.690Z,94986.00
2023-09-16T20:58:47.804Z,94991.16
2023-09-16T21:01:15.074Z,94991.94
2023-09-16T21:03:42.399Z,94985.78
2023-09-16T21:06:09.780Z,94991.75
2023-09-16T21:08:37.054Z,94988.56
2023-09-16T21:11:04.756Z,94985.38
2023-09-16T21:13:31.998Z,94982.16
2023-09-16T21:15:59.293Z,94982.75
2023-09-16T21:18:26.460Z,94983.03
2023-09-16T21:20:53.617Z,94977.94
2023-09-16T21:23:22.796Z,94972.06
2023-09-16T21:25:50.077Z,94982.56
2023-09-16T21:28:18.132Z,94977.25
2023-09-16T21:30:45.169Z,94974.84
2023-09-16T21:33:12.597Z,94979.22
2023-09-16T21:35:39.741Z,94967.72
2023-09-16T21:38:06.863Z,94967.50
2023-09-16T21:40:33.977Z,94969.47
2023-09-16T21:43:01.422Z,94964.97
2023-09-16T21:45:28.603Z,94969.84
2023-09-16T21:47:56.426Z,94970.44
2023-09-16T21:50:23.747Z,94962.41
2023-09-16T21:52:50.880Z,94959.81
2023-09-16T21:55:18.026Z,94964.69
2023-09-16T21:57:45.159Z,94962.59
2023-09-16T22:00:25.177Z,94961.28
2023-09-16T22:02:52.966Z,94969.34
2023-09-16T22:05:20.834Z,94959.97
2023-09-16T22:07:48.910Z,94959.16
2023-09-16T22:10:16.743Z,94968.31
2023-09-16T22:12:44.096Z,94962.44
2023-09-16T22:15:12.352Z,94961.94
2023-09-16T22:17:42.343Z,94964.31
2023-09-16T22:20:11.115Z,94962.72
2023-09-16T22:22:41.336Z,94963.84
2023-09-16T22:25:11.425Z,94959.03
2023-09-16T22:27:38.974Z,94963.63
2023-09-16T22:30:07.842Z,94962.00
2023-09-16T22:32:35.703Z,94961.50
2023-09-16T22:35:05.003Z,94972.25
2023-09-16T22:37:33.496Z,94967.16
2023-09-16T22:40:00.617Z,94960.97
2023-09-16T22:42:27.678Z,94966.13
2023-09-16T22:45:05.106Z,94963.75
2023-09-16T22:47:34.611Z,94964.81
2023-09-16T22:50:02.638Z,94965.72
2023-09-16T22:52:31.940Z,94967.06
2023-09-16T22:55:00.369Z,94957.47
2023-09-16T22:57:27.989Z,94959.91
2023-09-16T22:59:56.970Z,94955.91
2023-09-16T23:02:25.085Z,94953.31
2023-09-16T23:04:53.011Z,94966.44
2023-09-16T23:07:21.148Z,94959.25
2023-09-16T23:09:51.842Z,94964.13
2023-09-16T23:12:19.133Z,94968.97
2023-09-16T23:14:46.617Z,94969.28
2023-09-16T23:17:13.746Z,94969.28
2023-09-16T23:19:41.246Z,94974.94
2023-09-16T23:22:08.627Z,94976.03
2023-09-16T23:24:35.712Z,94983.00
2023-09-16T23:27:03.185Z,94979.78
2023-09-16T23:29:30.775Z,94979.28
2023-09-16T23:31:58.109Z,94983.03
2023-09-16T23:34:25.214Z,94980.41
2023-09-16T23:36:52.355Z,94989.84
2023-09-16T23:39:19.426Z,94981.28
2023-09-16T23:41:47.081Z,94986.19
2023-09-16T23:44:15.877Z,94977.63
2023-09-16T23:46:43.224Z,94987.84
2023-09-16T23:49:10.603Z,94993.00
2023-09-16T23:51:37.802Z,94982.31
2023-09-16T23:54:05.006Z,94988.25
2023-09-16T23:56:32.021Z,94986.63
2023-09-16T23:58:59.636Z,94983.47
